Aeroboteco Virtual Airlines! Uma nuvem a frente.



 INFORMAÇÕES METEOROLÓGICAS
METAR FOR SBUR
ADDS - METARS form results

(0310 UTC 27 May 2019)
Data provider http://aviationweather.gov/metar/data/
 
Forecast for: SBUR (UBERABA , BR)
Text: TAF SBUR 262201Z 2700/2712 16005KT CAVOK TN12/2709Z TX14/2711Z
Forecast period: 0000 to 0200 UTC 27 May 2019
Forecast type: FROM: standard forecast or significant change
Winds: from the SSE (160 degrees) at 6 MPH (5 knots; 2.6 m/s)
Visibility: 6 or more miles 10+ km)
Ceiling: unknown
Clouds: missing
Weather: no significant weather forecast for this period
Text: BECMG 2702/2704 09005KT RMK PGM
Forecast period: 0200 to 1200 UTC 27 May 2019
Forecast type: BECOMING: Conditions expected to become as follows by 0400 UTC 27 May 2019
Winds: from the E (90 degrees) at 6 MPH (5 knots; 2.6 m/s)
Visibility: 6 or more miles 10+ km)
Ceiling: unknown
Clouds: missing
Weather: no significant weather forecast for this period

 MAPA DO AEROPORTO

 INFORMAÇÕES DA PISTA
Pista 17 Tamanho da pista 5771 ft Largura da pista 148 ft
Elevação da pista 0 ft Ranhura da pista 0 ft Proa da pista 0
Pista 35 Tamanho da pista 5771 ft Largura da pista 148 ft
Elevação da pista 0 ft Ranhura da pista 0 ft Proa da pista 0

 FREQUÊNCIAS DO AEROPORTO
Tipo APP Nome APP Frequência 120.8 MHZ
Tipo RDO Nome RDO Frequência 120.8 MHZ
Tipo TWR Nome TWR Frequência 118.5 MHZ

 AUXÍLIOS DE NAVEGAÇÃO PRÓXIMOS AO AEROPORTO
Tipo NDB Nome Uberaba Frequência 235 KHZ